This is the latest recevied weather packets stored in our database for station/object KE4LOJ. If no packets are shown the sender has not sent any weather packets the latest 10 day(s).
| Time | Temp. | Humidity | Pressure | Rain* | Wind** | Luminosity | Snow |
|---|---|---|---|---|---|---|---|
| 1777581785 | 32.22° C | 40% | 1009.6 hPa | 0 mm | - | 545 W/m² | - |
| 1777581483 | 32.78° C | 40% | 1009.7 hPa | 0 mm | - | 554 W/m² | - |
| 1777581179 | 31.67° C | 42% | 1009.7 hPa | 0 mm | - | 615 W/m² | - |
| 1777580874 | 32.22° C | 41% | 1009.6 hPa | 0 mm | - | 189 W/m² | - |
| 1777580569 | 32.78° C | 41% | 1009.8 hPa | 0 mm | - | 602 W/m² | - |
| 1777580265 | 32.22° C | 41% | 1009.8 hPa | 0 mm | - | 484 W/m² | - |
| 1777579962 | 32.22° C | 41% | 1009.7 hPa | 0 mm | - | 665 W/m² | - |
| 1777579657 | 32.78° C | 40% | 1009.7 hPa | 0 mm | - | 623 W/m² | - |
| 1777579356 | 32.78° C | 41% | 1009.7 hPa | 0 mm | - | 670 W/m² | - |
| 1777579052 | 32.78° C | 41% | 1009.5 hPa | 0 mm | - | 696 W/m² | - |
| 1777578747 | 32.78° C | 41% | 1009.8 hPa | 0 mm | - | 667 W/m² | - |
| 1777578446 | 32.78° C | 40% | 1010.1 hPa | 0 mm | - | 673 W/m² | - |
| 1777578142 | 32.78° C | 42% | 1010.1 hPa | 0 mm | - | 723 W/m² | - |
| 1777577838 | 31.67° C | 42% | 1009.9 hPa | 0 mm | - | 737 W/m² | - |
| 1777577534 | 32.22° C | 43% | 1010.1 hPa | 0 mm | - | 175 W/m² | - |
| 1777577231 | 32.78° C | 42% | 1010.3 hPa | 0 mm | - | 682 W/m² | - |
| 1777576927 | 32.78° C | 42% | 1010.2 hPa | 0 mm | - | 187 W/m² | - |
| 1777576622 | 32.78° C | 41% | 1010.3 hPa | 0 mm | - | 800 W/m² | - |
| 1777576312 | 32.22° C | 43% | 1010.2 hPa | 0 mm | - | 761 W/m² | - |
| 1777576009 | 32.78° C | 43% | 1010.5 hPa | 0 mm | - | 754 W/m² | - |
| 1777575705 | 31.67° C | 45% | 1010.6 hPa | 0 mm | - | 791 W/m² | - |
| 1777575401 | 31.11° C | 48% | 1010.5 hPa | 0 mm | - | 793 W/m² | - |
| 1777575097 | 31.11° C | 47% | 1010.9 hPa | 0 mm | - | 161 W/m² | - |
| 1777574793 | 31.11° C | 48% | 1011.1 hPa | 0 mm | - | 188 W/m² | - |
| 1777574491 | 32.22° C | 46% | 1010.9 hPa | 0 mm | - | 850 W/m² | - |
* Rain latest hour (hover to see other rain measurements)
** Current wind speed in m/s (hover to see current wind gust speed)